Time;durP1;ratioP1;P1;durP2;ratioP2;P2;SDS_P1;SDS_P2;PMS_P1;PMS_P2;Temp;Humidity;BMP_temperature;BMP_pressure;BME280_temperature;BME280_humidity;BME280_pressure;Samples;Min_cycle;Max_cycle;Signal;HPM_P1;HPM_P2
2023/12/13 00:03:01;;;;;;;266.00;73.10;;;;;;;4.47;100.00;99445.48;213845;1295;141110;-92
2023/12/13 00:13:03;;;;;;;110.90;43.90;;;;;;;4.44;100.00;99432.64;213803;1295;141634;-91
2023/12/13 00:18:04;;;;;;;126.40;44.30;;;;;;;4.44;100.00;99427.27;214359;1295;138997;-90
2023/12/13 00:23:04;;;;;;;117.00;42.60;;;;;;;4.47;100.00;99420.40;213840;1295;140111;-90
2023/12/13 00:28:05;;;;;;;116.80;43.40;;;;;;;4.47;100.00;99418.62;214210;1296;140005;-92
2023/12/13 00:33:05;;;;;;;121.40;50.00;;;;;;;4.46;100.00;99414.46;213825;1295;140233;-92
2023/12/13 00:38:06;;;;;;;106.20;38.80;;;;;;;4.44;100.00;99408.20;214218;1295;140271;-87
2023/12/13 00:43:06;;;;;;;108.10;39.50;;;;;;;4.40;100.00;99403.39;214604;1298;140243;-91
2023/12/13 00:48:07;;;;;;;124.80;43.20;;;;;;;4.38;100.00;99402.73;214877;1296;139451;-91
2023/12/13 00:53:07;;;;;;;88.80;36.00;;;;;;;4.38;100.00;99405.52;214219;1295;139942;-92
2023/12/13 00:58:07;;;;;;;81.00;34.50;;;;;;;4.36;100.00;99406.02;214341;1295;139693;-91
2023/12/13 01:03:08;;;;;;;120.90;64.90;;;;;;;4.33;100.00;99402.14;214009;1296;140413;-91
2023/12/13 01:08:08;;;;;;;84.80;37.20;;;;;;;4.31;100.00;99400.79;214431;1296;139106;-92
2023/12/13 01:13:09;;;;;;;143.20;48.60;;;;;;;4.29;100.00;99401.98;214457;1295;140506;-92
2023/12/13 01:18:09;;;;;;;164.10;52.90;;;;;;;4.27;100.00;99395.88;214283;1296;138781;-93
2023/12/13 01:23:10;;;;;;;82.70;33.90;;;;;;;4.26;100.00;99389.11;214216;1296;139961;-91
2023/12/13 01:28:10;;;;;;;99.50;40.40;;;;;;;4.25;100.00;99387.91;214427;1296;139016;-93
2023/12/13 01:33:10;;;;;;;82.20;31.90;;;;;;;4.22;100.00;99385.98;213793;1295;140277;-91
2023/12/13 01:38:11;;;;;;;159.60;61.10;;;;;;;4.22;100.00;99382.89;214413;1296;139409;-91
2023/12/13 01:43:20;;;;;;;194.70;56.40;;;;;;;4.22;100.00;99383.34;213847;1293;140343;-90
2023/12/13 01:48:22;;;;;;;156.60;49.80;;;;;;;4.22;100.00;99381.25;214419;1296;105040;-90
2023/12/13 01:53:26;;;;;;;108.80;42.50;;;;;;;4.20;100.00;99379.19;213848;1296;142536;-92
2023/12/13 01:58:27;;;;;;;82.60;33.70;;;;;;;4.21;100.00;99366.83;214217;1298;139859;-90
2023/12/13 02:03:28;;;;;;;94.70;34.20;;;;;;;4.20;100.00;99364.09;213844;1293;140390;-90
2023/12/13 02:08:30;;;;;;;76.50;30.60;;;;;;;4.21;100.00;99356.88;214423;1294;139262;-94
2023/12/13 02:13:30;;;;;;;79.90;31.50;;;;;;;4.23;100.00;99355.52;213809;1295;140778;-92
2023/12/13 02:18:31;;;;;;;73.40;31.90;;;;;;;4.23;100.00;99354.50;214322;1296;110108;-92
2023/12/13 02:23:31;;;;;;;71.80;27.50;;;;;;;4.24;100.00;99355.70;213969;1296;142393;-90
2023/12/13 02:28:32;;;;;;;68.10;28.70;;;;;;;4.23;100.00;99349.90;214478;1296;138749;-89
2023/12/13 02:33:32;;;;;;;62.60;29.30;;;;;;;4.20;100.00;99342.23;213945;1296;141686;-89
2023/12/13 02:38:32;;;;;;;105.00;45.30;;;;;;;4.18;100.00;99336.98;214393;1296;138893;-90
2023/12/13 02:43:33;;;;;;;77.30;31.70;;;;;;;4.20;100.00;99332.11;213881;1296;140255;-94
2023/12/13 02:48:33;;;;;;;60.00;25.10;;;;;;;4.18;100.00;99322.98;214532;1296;98024;-92
2023/12/13 02:53:34;;;;;;;65.40;27.30;;;;;;;4.16;100.00;99316.09;213618;1295;140551;-89
2023/12/13 02:58:34;;;;;;;68.70;28.70;;;;;;;4.16;100.00;99310.02;214474;1296;138780;-90
2023/12/13 03:03:35;;;;;;;58.00;24.60;;;;;;;4.15;100.00;99309.92;214117;1295;139750;-91
2023/12/13 03:08:36;;;;;;;57.80;23.20;;;;;;;4.17;100.00;99311.74;214757;1297;138930;-90
2023/12/13 03:13:36;;;;;;;55.70;23.70;;;;;;;4.15;100.00;99312.18;213917;1296;140403;-95
2023/12/13 03:18:37;;;;;;;54.50;22.00;;;;;;;4.15;100.00;99305.58;214596;1295;96538;-90
2023/12/13 03:23:37;;;;;;;51.10;19.40;;;;;;;4.14;100.00;99303.94;213859;1296;139801;-91
2023/12/13 03:28:38;;;;;;;54.20;22.60;;;;;;;4.14;100.00;99304.39;214373;1295;140278;-90
2023/12/13 03:33:38;;;;;;;50.70;20.70;;;;;;;4.13;100.00;99296.44;213937;1296;139874;-91
2023/12/13 03:38:39;;;;;;;50.60;21.10;;;;;;;4.12;100.00;99305.68;214321;1295;139041;-91
2023/12/13 03:43:39;;;;;;;72.90;31.10;;;;;;;4.13;100.00;99309.89;213875;1296;140180;-88
2023/12/13 03:48:40;;;;;;;64.30;23.80;;;;;;;4.12;100.00;99305.29;214491;1296;97856;-91
2023/12/13 03:53:42;;;;;;;79.90;27.30;;;;;;;4.12;100.00;99308.16;214024;1295;139662;-88
2023/12/13 03:58:43;;;;;;;61.20;25.40;;;;;;;4.08;100.00;99302.09;214326;1295;138802;-90
2023/12/13 04:03:43;;;;;;;69.40;24.70;;;;;;;4.07;100.00;99300.91;216398;1293;139708;-93
2023/12/13 04:08:44;;;;;;;63.70;22.30;;;;;;;4.06;100.00;99297.64;214798;1295;139178;-89
2023/12/13 04:13:45;;;;;;;51.30;22.30;;;;;;;4.05;100.00;99299.95;214109;1296;140074;-92
2023/12/13 04:18:45;;;;;;;56.40;21.60;;;;;;;4.04;100.00;99293.08;214806;1295;97905;-90
2023/12/13 04:23:46;;;;;;;57.20;20.70;;;;;;;4.04;100.00;99284.83;213796;1298;140150;-89
2023/12/13 04:28:46;;;;;;;52.40;20.80;;;;;;;4.04;100.00;99278.05;214391;1297;139125;-93
2023/12/13 04:33:46;;;;;;;59.70;22.90;;;;;;;4.02;100.00;99269.33;213876;1296;139886;-91
2023/12/13 04:38:47;;;;;;;55.80;21.20;;;;;;;4.03;100.00;99261.61;214559;1294;139029;-91
2023/12/13 04:43:48;;;;;;;58.10;23.10;;;;;;;4.03;100.00;99254.63;214009;1296;140309;-91
2023/12/13 04:48:48;;;;;;;72.10;27.20;;;;;;;4.05;100.00;99246.11;214871;1296;97959;-91
2023/12/13 04:53:48;;;;;;;62.80;22.70;;;;;;;4.03;100.00;99237.77;214641;1296;139336;-92
2023/12/13 04:58:49;;;;;;;55.90;21.00;;;;;;;4.01;100.00;99223.73;214581;1296;139001;-92
2023/12/13 05:03:49;;;;;;;55.90;21.60;;;;;;;4.01;100.00;99219.92;213948;1295;139763;-93
2023/12/13 05:08:50;;;;;;;54.30;21.50;;;;;;;4.03;100.00;99210.44;214476;1297;138940;-91
2023/12/13 05:13:51;;;;;;;52.20;21.50;;;;;;;4.02;100.00;99200.42;214028;1296;141124;-92
2023/12/13 05:18:51;;;;;;;53.80;22.10;;;;;;;4.04;100.00;99190.18;214513;1297;97895;-90
2023/12/13 05:23:52;;;;;;;58.40;21.60;;;;;;;4.04;100.00;99195.39;213945;1295;139710;-91
2023/12/13 05:28:52;;;;;;;59.70;23.20;;;;;;;4.04;100.00;99188.23;214462;1296;139391;-89
2023/12/13 05:33:52;;;;;;;58.70;21.50;;;;;;;4.05;100.00;99189.27;213941;1295;139895;-89
2023/12/13 05:38:53;;;;;;;61.90;22.40;;;;;;;4.05;100.00;99188.48;214675;1295;138883;-92
2023/12/13 05:43:53;;;;;;;53.30;21.30;;;;;;;4.03;100.00;99191.34;214039;1296;139681;-90
2023/12/13 05:48:55;;;;;;;67.10;27.10;;;;;;;4.03;100.00;99184.01;214469;1296;97976;-92
2023/12/13 05:53:56;;;;;;;61.50;23.90;;;;;;;4.03;100.00;99185.65;214086;1295;140400;-90
2023/12/13 05:58:57;;;;;;;61.60;24.40;;;;;;;4.02;100.00;99180.29;214667;1295;138789;-92
2023/12/13 06:03:58;;;;;;;144.60;46.70;;;;;;;4.03;100.00;99179.98;216315;1296;139648;-92
2023/12/13 06:08:58;;;;;;;75.50;29.00;;;;;;;4.05;100.00;99178.67;214964;1296;139212;-93
2023/12/13 06:13:59;;;;;;;63.60;24.50;;;;;;;4.06;100.00;99183.52;215007;1294;140270;-90
2023/12/13 06:18:59;;;;;;;72.50;27.30;;;;;;;4.08;100.00;99192.75;216056;1296;97848;-92
2023/12/13 06:24:01;;;;;;;59.90;22.60;;;;;;;4.11;100.00;99189.05;213831;1296;139450;-91
2023/12/13 06:29:01;;;;;;;76.60;27.00;;;;;;;4.12;100.00;99185.96;214364;1295;139202;-90
2023/12/13 06:34:02;;;;;;;79.30;27.80;;;;;;;4.13;100.00;99178.77;213923;1296;140138;-94
2023/12/13 06:39:07;;;;;;;64.10;25.30;;;;;;;4.15;100.00;99169.20;215000;1295;140095;-93
2023/12/13 06:44:07;;;;;;;70.70;24.50;;;;;;;4.16;100.00;99161.69;214277;1296;140151;-92
2023/12/13 06:49:09;;;;;;;63.70;24.00;;;;;;;4.17;100.00;99158.18;214194;1296;97873;-90
2023/12/13 06:54:09;;;;;;;84.40;29.40;;;;;;;4.17;100.00;99160.61;214023;1296;140682;-89
2023/12/13 06:59:10;;;;;;;55.70;22.20;;;;;;;4.19;100.00;99161.90;214538;1296;139006;-94
2023/12/13 07:04:11;;;;;;;75.40;28.30;;;;;;;4.22;100.00;99158.98;213924;1296;141258;-89
2023/12/13 07:09:18;;;;;;;70.70;27.80;;;;;;;4.24;100.00;99161.03;214308;1295;138953;-91
2023/12/13 07:14:18;;;;;;;;;;;;;;;4.26;100.00;99160.52;213719;1296;139753;-91
2023/12/13 07:19:19;;;;;;;60.10;24.40;;;;;;;4.27;100.00;99167.60;214264;1296;125233;-91
2023/12/13 07:24:19;;;;;;;78.60;30.60;;;;;;;4.28;100.00;99165.52;213867;1296;139999;-92
2023/12/13 07:29:20;;;;;;;96.70;36.20;;;;;;;4.30;100.00;99163.16;214272;1296;138887;-91
2023/12/13 07:34:21;;;;;;;77.30;28.20;;;;;;;4.33;100.00;99165.92;213949;1296;140501;-91
2023/12/13 07:39:21;;;;;;;68.80;26.70;;;;;;;4.35;100.00;99161.20;214448;1296;138868;-89
2023/12/13 07:44:22;;;;;;;59.50;25.20;;;;;;;4.37;100.00;99156.58;214061;1296;141163;-90
2023/12/13 07:49:28;;;;;;;64.70;27.40;;;;;;;4.38;100.00;99149.73;214738;1296;139896;-92
2023/12/13 07:54:29;;;;;;;79.00;28.90;;;;;;;4.40;100.00;99149.30;214077;1294;139726;-90
2023/12/13 07:59:29;;;;;;;64.80;29.10;;;;;;;4.43;100.00;99145.45;214211;1295;139121;-93
2023/12/13 08:04:36;;;;;;;69.40;28.30;;;;;;;4.46;100.00;99140.36;213639;1296;139736;-91
2023/12/13 08:09:37;;;;;;;75.60;30.80;;;;;;;4.48;100.00;99143.88;214182;1296;139079;-92
2023/12/13 08:14:38;;;;;;;150.90;60.60;;;;;;;4.52;100.00;99152.57;213483;1296;140373;-90
2023/12/13 08:19:38;;;;;;;97.50;36.80;;;;;;;4.54;100.00;99155.64;213794;1297;139299;-90
2023/12/13 08:24:43;;;;;;;76.60;29.50;;;;;;;4.59;100.00;99149.95;213787;1295;140252;-91
2023/12/13 08:29:45;;;;;;;70.10;31.50;;;;;;;4.60;100.00;99152.39;213596;1296;140456;-91
2023/12/13 08:34:46;;;;;;;78.80;32.50;;;;;;;4.64;100.00;99148.86;214228;1298;138809;-89
2023/12/13 08:39:48;;;;;;;67.40;30.90;;;;;;;4.67;100.00;99149.69;213322;1296;141464;-91
2023/12/13 08:44:49;;;;;;;66.60;31.50;;;;;;;4.71;100.00;99147.23;214279;1298;138930;-90
2023/12/13 08:49:49;;;;;;;75.60;32.60;;;;;;;4.72;100.00;99145.63;213560;1296;140605;-89
2023/12/13 08:54:50;;;;;;;71.20;29.60;;;;;;;4.74;100.00;99144.88;214461;1296;98440;-90
2023/12/13 08:59:50;;;;;;;90.70;40.50;;;;;;;4.77;100.00;99139.55;213891;1298;140891;-91
2023/12/13 09:04:51;;;;;;;83.60;34.00;;;;;;;4.80;100.00;99137.17;214416;1297;139032;-87
2023/12/13 09:09:51;;;;;;;72.80;33.10;;;;;;;4.84;100.00;99133.73;213827;1296;140515;-91
2023/12/13 09:14:52;;;;;;;70.00;30.30;;;;;;;4.88;100.00;99132.67;214307;1297;138959;-90
2023/12/13 09:19:52;;;;;;;102.90;39.80;;;;;;;4.90;100.00;99134.27;213782;1296;140259;-87
2023/12/13 09:24:53;;;;;;;107.80;42.40;;;;;;;4.93;100.00;99135.78;214487;1299;98508;-92
2023/12/13 09:29:54;;;;;;;136.30;43.40;;;;;;;4.96;100.00;99144.08;214170;1295;141106;-92
2023/12/13 09:34:55;;;;;;;113.00;43.60;;;;;;;5.00;100.00;99148.23;214448;1296;139540;-92
2023/12/13 09:39:55;;;;;;;147.90;52.20;;;;;;;4.99;100.00;99151.28;213598;1296;145321;-89
2023/12/13 09:44:58;;;;;;;128.10;47.40;;;;;;;5.00;100.00;99153.23;214173;1299;139277;-88
2023/12/13 09:49:59;;;;;;;172.00;54.00;;;;;;;5.01;100.00;99151.62;213647;1296;177651;-92
2023/12/13 09:55:01;;;;;;;118.10;43.60;;;;;;;5.03;100.00;99145.64;214275;1296;98275;-87
2023/12/13 10:00:01;;;;;;;85.40;37.80;;;;;;;5.04;100.00;99144.09;213716;1296;140706;-91
2023/12/13 10:05:03;;;;;;;87.40;38.10;;;;;;;5.05;100.00;99142.25;214522;1296;138866;-92
2023/12/13 10:10:04;;;;;;;88.70;41.40;;;;;;;5.07;100.00;99139.39;214395;1295;139934;-88
2023/12/13 10:15:11;;;;;;;83.80;37.00;;;;;;;5.09;100.00;99139.09;214655;1294;139131;-91
2023/12/13 10:20:12;;;;;;;97.60;39.60;;;;;;;5.11;100.00;99129.23;213802;1296;140216;-89
2023/12/13 10:25:13;;;;;;;88.70;37.20;;;;;;;5.14;100.00;99131.91;214253;1299;97890;-91
2023/12/13 10:30:14;;;;;;;118.20;50.00;;;;;;;5.16;100.00;99126.41;213848;1296;139901;-89
2023/12/13 10:35:15;;;;;;;112.30;44.40;;;;;;;5.18;100.00;99124.86;214135;1295;139250;-90
2023/12/13 10:40:17;;;;;;;89.80;38.40;;;;;;;5.19;100.00;99124.10;213693;1296;140001;-88
2023/12/13 10:45:22;;;;;;;77.30;35.70;;;;;;;5.19;100.00;99122.92;214312;1298;139824;-90
2023/12/13 10:50:23;;;;;;;76.60;35.90;;;;;;;5.21;100.00;99122.95;213899;1296;141493;-88
2023/12/13 10:55:28;;;;;;;76.10;35.50;;;;;;;5.20;100.00;99113.75;214496;1299;108453;-90
2023/12/13 11:00:28;;;;;;;73.60;35.70;;;;;;;5.20;100.00;99109.62;213800;1296;141348;-88
2023/12/13 11:05:30;;;;;;;77.90;36.40;;;;;;;5.19;100.00;99108.20;214385;1297;139210;-89
2023/12/13 11:10:30;;;;;;;72.50;36.20;;;;;;;5.19;100.00;99112.95;213688;1298;140583;-87
2023/12/13 11:15:31;;;;;;;75.70;34.60;;;;;;;5.19;100.00;99109.30;214229;1296;139206;-89
2023/12/13 11:20:33;;;;;;;68.20;33.90;;;;;;;5.19;100.00;99103.44;213749;1298;141163;-89
2023/12/13 11:25:35;;;;;;;70.70;31.70;;;;;;;5.19;100.00;99096.75;214303;1295;140247;-90
2023/12/13 11:30:41;;;;;;;75.50;33.60;;;;;;;5.21;100.00;99104.58;213963;1295;139915;-89
2023/12/13 11:35:41;;;;;;;76.10;35.50;;;;;;;5.22;100.00;99106.45;214255;1298;139688;-90
2023/12/13 11:40:42;;;;;;;104.30;46.30;;;;;;;5.22;100.00;99102.38;213891;1297;139718;-91
2023/12/13 11:45:52;;;;;;;71.40;34.00;;;;;;;5.20;100.00;99106.11;214246;1296;140008;-90
2023/12/13 11:50:53;;;;;;;87.00;36.30;;;;;;;5.19;100.00;99105.02;213774;1296;140749;-91
2023/12/13 11:55:54;;;;;;;77.20;33.00;;;;;;;5.19;100.00;99101.50;214703;1299;137990;-91
2023/12/13 12:00:57;;;;;;;82.70;39.20;;;;;;;5.19;100.00;99096.90;213954;1297;140613;-91
2023/12/13 12:05:58;;;;;;;76.20;32.60;;;;;;;5.18;100.00;99094.88;214346;1298;138850;-92
2023/12/13 12:10:58;;;;;;;77.00;33.10;;;;;;;5.19;100.00;99089.27;213803;1294;140722;-92
2023/12/13 12:16:00;;;;;;;79.30;37.40;;;;;;;5.18;100.00;99086.69;214062;1296;139076;-91
2023/12/13 12:21:01;;;;;;;73.70;36.00;;;;;;;5.17;100.00;99086.52;213660;1299;140307;-92
2023/12/13 12:26:07;;;;;;;80.60;34.90;;;;;;;5.15;100.00;99088.46;214060;1294;139178;-91
2023/12/13 12:31:11;;;;;;;72.00;32.70;;;;;;;5.15;100.00;99083.46;214214;1293;140069;-90
2023/12/13 12:36:12;;;;;;;74.30;33.70;;;;;;;5.13;100.00;99081.73;214273;1299;139242;-92
2023/12/13 12:41:14;;;;;;;74.50;35.30;;;;;;;5.11;100.00;99078.90;214715;1298;140488;-91
2023/12/13 12:46:16;;;;;;;74.80;34.90;;;;;;;5.12;100.00;99081.87;214243;1298;139153;-91
2023/12/13 12:51:19;;;;;;;70.10;31.20;;;;;;;5.11;100.00;99079.30;214197;1297;141226;-92
2023/12/13 12:56:20;;;;;;;71.80;33.00;;;;;;;5.09;100.00;99076.33;214803;1296;139136;-93
2023/12/13 13:01:20;;;;;;;77.80;36.20;;;;;;;5.07;100.00;99077.53;215152;1295;139909;-92
2023/12/13 13:06:33;;;;;;;77.30;34.70;;;;;;;5.07;100.00;99082.83;215136;1296;139147;-96
2023/12/13 13:11:34;;;;;;;89.30;40.10;;;;;;;5.08;100.00;99078.94;214457;1297;140110;-92
2023/12/13 13:16:36;;;;;;;87.70;37.90;;;;;;;5.09;100.00;99082.09;215378;1294;138855;-93
2023/12/13 13:21:37;;;;;;;90.60;37.90;;;;;;;5.10;100.00;99082.48;214143;1299;140202;-91
2023/12/13 13:26:37;;;;;;;92.60;40.70;;;;;;;5.10;100.00;99081.21;214439;1299;138915;-92
2023/12/13 13:31:42;;;;;;;95.80;42.30;;;;;;;5.10;100.00;99084.66;214470;1298;141439;-94
2023/12/13 13:36:46;;;;;;;83.50;35.90;;;;;;;5.09;100.00;99088.06;214600;1295;97888;-94
2023/12/13 13:42:00;;;;;;;79.00;36.80;;;;;;;5.12;100.00;99091.77;215124;1297;140262;-95
2023/12/13 13:47:01;;;;;;;70.40;33.20;;;;;;;5.13;100.00;99090.23;214706;1296;140738;-92
2023/12/13 13:52:02;;;;;;;80.20;35.90;;;;;;;5.15;100.00;99096.17;214505;1295;140628;-92
2023/12/13 13:57:05;;;;;;;86.70;40.20;;;;;;;5.15;100.00;99101.02;214857;1295;138942;-92
2023/12/13 14:02:12;;;;;;;87.90;41.00;;;;;;;5.16;100.00;99105.84;214144;1293;141280;-90
2023/12/13 14:07:12;;;;;;;83.40;38.00;;;;;;;5.15;100.00;99109.02;214691;1298;97968;-89
2023/12/13 14:12:13;;;;;;;85.90;39.20;;;;;;;5.13;100.00;99106.36;214077;1296;141011;-91
2023/12/13 14:17:14;;;;;;;84.50;37.50;;;;;;;5.12;100.00;99107.82;214664;1296;139576;-90
2023/12/13 14:22:15;;;;;;;84.00;39.00;;;;;;;5.11;100.00;99114.34;214696;1295;140694;-92
2023/12/13 14:27:16;;;;;;;83.40;36.70;;;;;;;5.09;100.00;99121.56;214519;1296;139115;-92
2023/12/13 14:32:17;;;;;;;82.10;35.80;;;;;;;5.07;100.00;99124.59;213886;1296;140868;-91
2023/12/13 14:37:20;;;;;;;73.20;35.30;;;;;;;5.06;100.00;99120.45;214658;1296;97985;-92
2023/12/13 14:42:21;;;;;;;74.00;34.70;;;;;;;5.07;100.00;99124.90;213569;1296;140415;-91
2023/12/13 14:47:21;;;;;;;82.60;39.00;;;;;;;5.04;100.00;99119.95;214197;1296;138755;-92
2023/12/13 14:52:23;;;;;;;66.60;32.00;;;;;;;5.00;100.00;99125.13;213947;1295;140839;-93
2023/12/13 14:57:25;;;;;;;68.00;30.80;;;;;;;4.97;100.00;99119.94;214328;1298;139535;-90
2023/12/13 15:02:25;;;;;;;64.40;29.40;;;;;;;4.94;100.00;99124.27;213804;1298;140402;-92
2023/12/13 15:07:26;;;;;;;59.70;29.50;;;;;;;4.91;100.00;99123.69;214440;1296;99286;-90
2023/12/13 15:12:27;;;;;;;64.90;29.50;;;;;;;4.89;100.00;99126.16;213774;1298;140545;-92
2023/12/13 15:17:28;;;;;;;66.50;30.70;;;;;;;4.85;100.00;99119.73;214274;1296;139099;-92
2023/12/13 15:22:29;;;;;;;70.00;32.50;;;;;;;4.81;100.00;99127.85;213654;1298;141358;-90
2023/12/13 15:27:30;;;;;;;61.60;30.00;;;;;;;4.78;100.00;99126.78;214230;1296;139341;-92
2023/12/13 15:32:32;;;;;;;68.20;28.40;;;;;;;4.76;100.00;99130.65;213815;1299;139782;-91
2023/12/13 15:37:33;;;;;;;54.10;24.30;;;;;;;4.72;100.00;99126.64;214550;1295;99314;-89
2023/12/13 15:42:33;;;;;;;62.90;27.90;;;;;;;4.69;100.00;99132.20;213871;1299;141101;-90
2023/12/13 15:47:34;;;;;;;63.90;28.00;;;;;;;4.66;100.00;99131.15;214383;1295;140053;-92
2023/12/13 15:52:43;;;;;;;75.20;34.30;;;;;;;4.63;100.00;99134.45;213694;1296;141167;-91
2023/12/13 15:57:44;;;;;;;59.90;27.80;;;;;;;4.63;100.00;99135.78;214134;1296;139074;-88
2023/12/13 16:02:44;;;;;;;60.50;27.60;;;;;;;4.60;100.00;99130.60;213810;1295;140114;-90
2023/12/13 16:07:45;;;;;;;63.20;29.70;;;;;;;4.58;100.00;99138.50;214307;1296;139016;-90
2023/12/13 16:12:47;;;;;;;64.30;31.30;;;;;;;4.58;100.00;99147.38;215441;1298;140604;-90
2023/12/13 16:17:49;;;;;;;66.80;30.60;;;;;;;4.56;100.00;99153.75;214124;1299;139503;-90
2023/12/13 16:22:50;;;;;;;70.70;31.60;;;;;;;4.54;100.00;99156.98;214048;1296;140073;-91
2023/12/13 16:27:51;;;;;;;69.70;31.90;;;;;;;4.54;100.00;99166.23;214442;1295;140111;-91
2023/12/13 16:32:52;;;;;;;64.90;29.90;;;;;;;4.52;100.00;99171.10;213907;1298;139819;-91
2023/12/13 16:37:55;;;;;;;64.50;29.20;;;;;;;4.53;100.00;99176.88;214689;1296;139746;-92
2023/12/13 16:42:59;;;;;;;65.70;28.90;;;;;;;4.50;100.00;99183.52;216055;1295;140000;-91
2023/12/13 16:47:59;;;;;;;64.40;29.90;;;;;;;4.51;100.00;99183.08;217179;1296;139236;-92
2023/12/13 16:53:00;;;;;;;68.60;29.60;;;;;;;4.50;100.00;99183.39;215078;1295;140324;-93
2023/12/13 16:58:01;;;;;;;64.00;27.80;;;;;;;4.51;100.00;99186.59;214666;1296;139634;-91
2023/12/13 17:03:02;;;;;;;59.10;28.10;;;;;;;4.49;100.00;99181.25;214143;1296;139859;-91
2023/12/13 17:08:03;;;;;;;60.90;28.10;;;;;;;4.47;100.00;99191.05;214657;1298;139822;-91
2023/12/13 17:13:04;;;;;;;64.20;29.00;;;;;;;4.45;100.00;99191.95;214155;1295;139604;-90
2023/12/13 17:18:04;;;;;;;61.70;30.00;;;;;;;4.45;100.00;99191.86;214730;1297;139858;-89
2023/12/13 17:23:05;;;;;;;61.80;28.20;;;;;;;4.45;100.00;99199.17;214159;1299;140383;-89
2023/12/13 17:28:07;;;;;;;58.00;27.10;;;;;;;4.44;100.00;99202.83;214529;1296;139821;-88
2023/12/13 17:33:08;;;;;;;67.50;30.60;;;;;;;4.43;100.00;99207.17;213498;1298;140135;-89
2023/12/13 17:38:08;;;;;;;70.00;32.40;;;;;;;4.43;100.00;99210.34;213174;1301;139852;-90
2023/12/13 17:43:10;;;;;;;62.90;28.70;;;;;;;4.42;100.00;99209.23;214728;1295;140246;-88
2023/12/13 17:48:11;;;;;;;61.80;29.20;;;;;;;4.43;100.00;99214.09;213712;1296;139627;-88
2023/12/13 17:53:13;;;;;;;65.50;29.10;;;;;;;4.44;100.00;99220.73;212823;1297;140130;-89
2023/12/13 17:58:13;;;;;;;67.70;29.80;;;;;;;4.42;100.00;99229.71;213388;1296;139391;-90
2023/12/13 18:03:14;;;;;;;62.80;28.10;;;;;;;4.40;100.00;99234.20;212879;1295;140345;-88
2023/12/13 18:08:15;;;;;;;62.00;28.40;;;;;;;4.39;100.00;99238.23;213432;1299;139567;-90
2023/12/13 18:13:15;;;;;;;79.40;33.60;;;;;;;4.38;100.00;99244.91;212985;1298;140289;-89
2023/12/13 18:18:19;;;;;;;72.00;30.00;;;;;;;4.35;100.00;99248.20;213256;1296;139759;-87
2023/12/13 18:23:25;;;;;;;80.80;33.40;;;;;;;4.33;100.00;99247.08;213487;1295;139910;-88
2023/12/13 18:28:26;;;;;;;86.30;35.70;;;;;;;4.32;100.00;99249.45;213090;1298;139593;-89
2023/12/13 18:33:27;;;;;;;71.90;31.50;;;;;;;4.31;100.00;99259.89;212723;1296;139826;-87
2023/12/13 18:38:29;;;;;;;61.50;27.80;;;;;;;4.32;100.00;99258.89;213140;1296;139722;-87
2023/12/13 18:43:30;;;;;;;78.30;34.80;;;;;;;4.30;100.00;99261.58;212792;1298;139998;-87
2023/12/13 18:48:31;;;;;;;63.20;28.70;;;;;;;4.29;100.00;99268.09;213169;1299;138706;-86
2023/12/13 18:53:31;;;;;;;67.00;29.10;;;;;;;4.27;100.00;99270.30;213132;1294;140070;-89
2023/12/13 18:58:31;;;;;;;67.20;27.40;;;;;;;4.26;100.00;99276.21;213338;1298;139862;-90
2023/12/13 19:03:32;;;;;;;74.80;31.30;;;;;;;4.27;100.00;99278.17;212877;1296;139886;-88
2023/12/13 19:08:36;;;;;;;76.30;30.30;;;;;;;4.26;100.00;99278.38;213567;1298;139064;-85
2023/12/13 19:13:37;;;;;;;93.60;37.70;;;;;;;4.25;100.00;99281.18;213093;1296;140317;-88
2023/12/13 19:18:37;;;;;;;71.50;30.50;;;;;;;4.26;100.00;99280.87;213517;1295;139749;-87
2023/12/13 19:23:38;;;;;;;90.20;34.10;;;;;;;4.25;100.00;99283.73;215154;1293;140462;-86
2023/12/13 19:28:39;;;;;;;76.50;29.80;;;;;;;4.24;100.00;99292.13;213486;1297;139706;-87
2023/12/13 19:33:40;;;;;;;97.00;38.60;;;;;;;4.23;100.00;99297.48;213354;1294;139553;-87
2023/12/13 19:38:40;;;;;;;78.80;31.60;;;;;;;4.24;100.00;99304.18;213708;1296;139257;-87
2023/12/13 19:43:59;;;;;;;76.60;33.00;;;;;;;4.25;100.00;99310.80;213407;1295;139673;-87
2023/12/13 19:49:00;;;;;;;85.30;34.50;;;;;;;4.23;100.00;99317.40;213689;1296;105989;-86
2023/12/13 19:54:00;;;;;;;86.80;32.50;;;;;;;4.23;100.00;99322.98;213234;1299;140483;-86
2023/12/13 19:59:01;;;;;;;80.90;31.30;;;;;;;4.22;100.00;99324.52;213271;1296;139457;-87
2023/12/13 20:04:01;;;;;;;91.80;35.90;;;;;;;4.21;100.00;99331.67;212636;1298;139707;-87
2023/12/13 20:09:02;;;;;;;95.50;34.60;;;;;;;4.21;100.00;99334.62;213076;1298;139057;-86
2023/12/13 20:14:03;;;;;;;83.30;30.90;;;;;;;4.20;100.00;99337.72;212955;1299;139856;-88
2023/12/13 20:19:03;;;;;;;100.30;36.20;;;;;;;4.22;100.00;99340.63;213323;1296;98061;-88
2023/12/13 20:24:05;;;;;;;94.20;35.50;;;;;;;4.22;100.00;99342.11;212501;1297;142685;-89
2023/12/13 20:29:06;;;;;;;102.30;36.10;;;;;;;4.21;100.00;99343.79;212938;1296;139762;-93
2023/12/13 20:34:10;;;;;;;86.30;34.00;;;;;;;4.19;100.00;99347.89;212565;1296;139999;-89
2023/12/13 20:39:11;;;;;;;89.90;34.50;;;;;;;4.17;100.00;99353.45;213075;1296;140008;-90
2023/12/13 20:44:16;;;;;;;95.40;36.90;;;;;;;4.15;100.00;99362.60;212845;1293;139742;-88
2023/12/13 20:49:16;;;;;;;102.60;37.30;;;;;;;4.11;100.00;99362.07;213495;1295;112137;-90
2023/12/13 20:54:17;;;;;;;104.30;36.60;;;;;;;4.11;100.00;99370.39;212889;1298;140532;-89
2023/12/13 20:59:17;;;;;;;93.10;34.30;;;;;;;4.10;100.00;99377.52;213253;1295;140578;-90
2023/12/13 21:04:18;;;;;;;101.20;37.20;;;;;;;4.09;100.00;99379.67;212654;1295;139954;-91
2023/12/13 21:09:19;;;;;;;104.80;39.60;;;;;;;4.07;100.00;99390.52;213370;1295;139243;-89
2023/12/13 21:14:19;;;;;;;114.30;40.00;;;;;;;4.07;100.00;99401.48;213255;1296;140595;-91
2023/12/13 21:19:20;;;;;;;107.60;38.40;;;;;;;4.07;100.00;99407.64;213745;1295;97979;-93
2023/12/13 21:24:20;;;;;;;113.60;44.50;;;;;;;4.06;100.00;99414.14;213075;1296;139647;-93
2023/12/13 21:29:23;;;;;;;108.40;39.90;;;;;;;4.02;100.00;99421.83;213991;1295;139799;-92
2023/12/13 21:34:24;;;;;;;91.90;33.80;;;;;;;3.99;100.00;99423.50;213100;1296;142544;-89
2023/12/13 21:39:27;;;;;;;99.60;32.90;;;;;;;4.00;100.00;99429.42;213879;1296;139665;-93
2023/12/13 21:44:28;;;;;;;108.00;38.10;;;;;;;3.99;100.00;99442.62;213091;1296;140104;-91
2023/12/13 21:49:29;;;;;;;134.20;43.90;;;;;;;3.98;100.00;99452.85;213843;1298;213701;-90
2023/12/13 21:54:30;;;;;;;103.20;38.40;;;;;;;3.93;100.00;99457.81;213247;1296;140761;-93
2023/12/13 21:59:30;;;;;;;112.60;39.50;;;;;;;3.92;100.00;99462.06;213981;1294;139301;-90
2023/12/13 22:04:31;;;;;;;103.10;36.60;;;;;;;3.91;100.00;99469.04;213800;1296;140351;-89
2023/12/13 22:09:32;;;;;;;141.70;44.40;;;;;;;3.91;100.00;99474.23;214218;1295;139585;-91
2023/12/13 22:14:32;;;;;;;88.30;32.50;;;;;;;3.91;100.00;99484.29;213128;1298;140101;-89
2023/12/13 22:24:39;;;;;;;99.10;32.60;;;;;;;3.88;100.00;99494.33;212883;1294;140081;-90
2023/12/13 22:29:39;;;;;;;94.90;31.90;;;;;;;3.87;100.00;99503.40;213882;1295;139194;-90
2023/12/13 22:34:40;;;;;;;99.10;37.00;;;;;;;3.85;100.00;99507.17;212452;1296;139962;-90
2023/12/13 22:39:40;;;;;;;108.10;39.00;;;;;;;3.85;100.00;99510.81;214350;1298;139707;-92
2023/12/13 22:44:41;;;;;;;130.80;40.90;;;;;;;3.85;100.00;99509.50;213498;1297;140490;-91